MSR2768 LEBL-HELX
Flight info
| Callsign | MSR2768 |
|---|---|
| Flight time | N/A |
| Altitude | 18000 |
| Route | DIPES N725 TOSNU/N0441F340 N725 INKIR/N0446F350 DCT TABOT M739 NIVAB UM739 SONAK DCT ASDAX/N0445F290 M978 GZO M980 BONAR/N0440F350 M980 LOSUL M855 MMA N705 BOPIX N710 TAKRI P751 LXR |
| Aircraft | A320/M-SDE3FGHIRWY/LB1 |
Departure
| Time | 2026-05-06 19:30 |
|---|---|
| Airport | Josep Tarradellas Barcelona-El Prat Airport (LEBL) |
Arrival
| Time | N/A |
|---|---|
| Airport | Luxor International Airport (HELX) |
| Time | Latitude | Longitude | Altitude | Speed | Heading |
|---|---|---|---|---|---|
| 2026-05-06 18:59 | 41.28945 | 2.07780 | 20 ft | 0 kts | 335° |
| 2026-05-06 19:16 | 41.28928 | 2.07791 | 20 ft | 4 kts | 335° |
| 2026-05-06 19:16 | 41.28904 | 2.07806 | 21 ft | 2 kts | 335° |
| 2026-05-06 19:16 | 41.28884 | 2.07821 | 21 ft | 4 kts | 313° |
| 2026-05-06 19:17 | 41.28870 | 2.07850 | 20 ft | 4 kts | 294° |
| 2026-05-06 19:17 | 41.28864 | 2.07866 | 20 ft | 1 kts | 294° |
| 2026-05-06 19:17 | 41.28864 | 2.07867 | 20 ft | 0 kts | 294° |
| 2026-05-06 19:21 | 41.28861 | 2.07854 | 21 ft | 2 kts | 245° |
| 2026-05-06 19:21 | 41.28849 | 2.07853 | 20 ft | 2 kts | 177° |
| 2026-05-06 19:21 | 41.28819 | 2.07865 | 19 ft | 6 kts | 160° |
| 2026-05-06 19:21 | 41.28774 | 2.07892 | 18 ft | 8 kts | 155° |
| 2026-05-06 19:22 | 41.28718 | 2.07927 | 17 ft | 11 kts | 156° |
| 2026-05-06 19:22 | 41.28645 | 2.07970 | 15 ft | 8 kts | 155° |
| 2026-05-06 19:22 | 41.28625 | 2.08033 | 16 ft | 8 kts | 81° |
| 2026-05-06 19:22 | 41.28649 | 2.08109 | 18 ft | 10 kts | 65° |
| 2026-05-06 19:23 | 41.28681 | 2.08200 | 17 ft | 12 kts | 64° |
| 2026-05-06 19:23 | 41.28719 | 2.08306 | 18 ft | 14 kts | 65° |
| 2026-05-06 19:23 | 41.28760 | 2.08431 | 17 ft | 12 kts | 66° |
| 2026-05-06 19:23 | 41.28794 | 2.08531 | 17 ft | 13 kts | 65° |
| 2026-05-06 19:24 | 41.28828 | 2.08631 | 17 ft | 10 kts | 65° |
| 2026-05-06 19:24 | 41.28860 | 2.08723 | 17 ft | 12 kts | 65° |
| 2026-05-06 19:24 | 41.28899 | 2.08835 | 16 ft | 14 kts | 65° |
| 2026-05-06 19:24 | 41.28943 | 2.08964 | 16 ft | 16 kts | 66° |
| 2026-05-06 19:25 | 41.28991 | 2.09108 | 19 ft | 18 kts | 65° |
| 2026-05-06 19:25 | 41.29046 | 2.09266 | 16 ft | 17 kts | 65° |
| 2026-05-06 19:25 | 41.29089 | 2.09390 | 17 ft | 13 kts | 65° |
| 2026-05-06 19:25 | 41.29129 | 2.09507 | 17 ft | 15 kts | 65° |
| 2026-05-06 19:26 | 41.29175 | 2.09642 | 17 ft | 17 kts | 65° |
| 2026-05-06 19:26 | 41.29220 | 2.09774 | 17 ft | 14 kts | 65° |
| 2026-05-06 19:26 | 41.29262 | 2.09899 | 17 ft | 14 kts | 66° |
| 2026-05-06 19:26 | 41.29216 | 2.09977 | 15 ft | 14 kts | 190° |
| 2026-05-06 19:27 | 41.29131 | 2.09915 | 18 ft | 13 kts | 204° |
| 2026-05-06 19:27 | 41.29066 | 2.09868 | 19 ft | 2 kts | 241° |
| 2026-05-06 19:27 | 41.29065 | 2.09867 | 19 ft | 0 kts | 241° |
| 2026-05-06 19:29 | 41.29013 | 2.09720 | 19 ft | 50 kts | 245° |
| 2026-05-06 19:30 | 41.28773 | 2.09017 | 18 ft | 114 kts | 246° |
| 2026-05-06 19:30 | 41.28369 | 2.07838 | 45 ft | 166 kts | 244° |
| 2026-05-06 19:30 | 41.27832 | 2.06442 | 689 ft | 170 kts | 232° |
| 2026-05-06 19:30 | 41.26840 | 2.05688 | 1302 ft | 171 kts | 187° |
| 2026-05-06 19:31 | 41.25579 | 2.05615 | 1654 ft | 193 kts | 182° |
| 2026-05-06 19:31 | 41.24161 | 2.05642 | 1971 ft | 212 kts | 181° |
| 2026-05-06 19:31 | 41.21156 | 2.05692 | 3386 ft | 220 kts | 182° |
| 2026-05-06 19:32 | 41.19611 | 2.05685 | 4066 ft | 224 kts | 183° |
| 2026-05-06 19:32 | 41.18099 | 2.05661 | 4720 ft | 229 kts | 182° |
| 2026-05-06 19:32 | 41.16464 | 2.05618 | 5292 ft | 241 kts | 184° |
| 2026-05-06 19:32 | 41.14886 | 2.05554 | 5842 ft | 249 kts | 183° |
| 2026-05-06 19:33 | 41.13137 | 2.05476 | 6594 ft | 254 kts | 184° |
| 2026-05-06 19:33 | 41.11360 | 2.05396 | 7347 ft | 257 kts | 184° |
| 2026-05-06 19:33 | 41.09564 | 2.05312 | 8104 ft | 260 kts | 184° |
| 2026-05-06 19:33 | 41.07803 | 2.05226 | 8854 ft | 263 kts | 184° |
| 2026-05-06 19:34 | 41.05968 | 2.05133 | 9644 ft | 265 kts | 185° |
| 2026-05-06 19:34 | 41.04114 | 2.05040 | 10351 ft | 268 kts | 184° |
| 2026-05-06 19:34 | 41.02186 | 2.05387 | 10614 ft | 294 kts | 160° |
| 2026-05-06 19:34 | 41.00450 | 2.06985 | 10793 ft | 319 kts | 130° |
| 2026-05-06 19:35 | 40.99438 | 2.09683 | 10934 ft | 341 kts | 101° |
| 2026-05-06 19:35 | 40.99272 | 2.12896 | 11178 ft | 357 kts | 88° |
| 2026-05-06 19:35 | 40.99403 | 2.16229 | 11736 ft | 363 kts | 84° |
| 2026-05-06 19:35 | 40.99656 | 2.19569 | 12369 ft | 367 kts | 83° |
| 2026-05-06 19:36 | 40.99938 | 2.22903 | 13007 ft | 370 kts | 83° |
| 2026-05-06 19:36 | 41.00207 | 2.26309 | 13649 ft | 374 kts | 84° |
| 2026-05-06 19:36 | 41.00443 | 2.29776 | 14221 ft | 378 kts | 85° |
| 2026-05-06 19:36 | 41.00647 | 2.33273 | 14758 ft | 383 kts | 85° |
| 2026-05-06 19:37 | 41.00830 | 2.36800 | 15255 ft | 388 kts | 86° |
| 2026-05-06 19:37 | 41.01006 | 2.40394 | 15756 ft | 393 kts | 86° |
| 2026-05-06 19:37 | 41.01181 | 2.44021 | 16253 ft | 397 kts | 86° |
| 2026-05-06 19:37 | 41.01303 | 2.46478 | 16596 ft | 401 kts | 86° |
| 2026-05-06 19:38 | 41.01548 | 2.51389 | 17267 ft | 407 kts | 86° |
| 2026-05-06 19:38 | 41.01739 | 2.55150 | 17778 ft | 412 kts | 86° |
| 2026-05-06 19:38 | 41.01934 | 2.58959 | 18289 ft | 417 kts | 86° |
| 2026-05-06 19:38 | 41.02131 | 2.62813 | 18761 ft | 422 kts | 87° |
| 2026-05-06 19:39 | 41.02326 | 2.66730 | 19253 ft | 426 kts | 87° |
| 2026-05-06 19:39 | 41.02519 | 2.70655 | 19759 ft | 429 kts | 87° |
| 2026-05-06 19:39 | 41.02713 | 2.74622 | 20263 ft | 433 kts | 87° |
| 2026-05-06 19:39 | 41.02906 | 2.78620 | 20752 ft | 437 kts | 88° |
| 2026-05-06 19:40 | 41.03098 | 2.82669 | 21222 ft | 441 kts | 88° |
| 2026-05-06 19:40 | 41.03288 | 2.86743 | 21676 ft | 445 kts | 88° |
| 2026-05-06 19:40 | 41.03481 | 2.90842 | 22117 ft | 448 kts | 88° |
| 2026-05-06 19:40 | 41.03675 | 2.94977 | 22549 ft | 452 kts | 88° |
| 2026-05-06 19:41 | 41.03871 | 2.99146 | 22978 ft | 455 kts | 88° |
| 2026-05-06 19:41 | 41.04065 | 3.03344 | 23404 ft | 459 kts | 88° |
| 2026-05-06 19:41 | 41.04257 | 3.07527 | 23753 ft | 462 kts | 88° |
| 2026-05-06 19:41 | 41.04451 | 3.11793 | 24084 ft | 466 kts | 88° |
| 2026-05-06 19:42 | 41.04646 | 3.16089 | 24421 ft | 469 kts | 89° |
| 2026-05-06 19:42 | 41.04839 | 3.20412 | 24753 ft | 472 kts | 89° |
| 2026-05-06 19:42 | 41.05031 | 3.24764 | 25086 ft | 474 kts | 89° |
| 2026-05-06 19:42 | 41.05224 | 3.29139 | 25414 ft | 477 kts | 89° |
| 2026-05-06 19:43 | 41.05419 | 3.33541 | 25731 ft | 480 kts | 89° |
| 2026-05-06 19:43 | 41.05615 | 3.37965 | 26053 ft | 482 kts | 89° |
| 2026-05-06 19:43 | 41.05808 | 3.42413 | 26370 ft | 485 kts | 89° |
| 2026-05-06 19:43 | 41.05998 | 3.46888 | 26689 ft | 488 kts | 89° |
| 2026-05-06 19:44 | 41.06139 | 3.51387 | 27004 ft | 489 kts | 94° |
| 2026-05-06 19:44 | 41.05878 | 3.55865 | 27308 ft | 487 kts | 103° |
| 2026-05-06 19:44 | 41.05184 | 3.60246 | 27620 ft | 487 kts | 108° |
| 2026-05-06 19:44 | 41.04394 | 3.64615 | 27931 ft | 489 kts | 108° |
| 2026-05-06 19:45 | 41.03592 | 3.69071 | 28246 ft | 492 kts | 108° |
| 2026-05-06 19:45 | 41.02815 | 3.73423 | 28583 ft | 493 kts | 108° |
| 2026-05-06 19:45 | 41.02031 | 3.77838 | 29027 ft | 492 kts | 108° |
| 2026-05-06 19:45 | 41.01237 | 3.82297 | 29438 ft | 492 kts | 108° |
| 2026-05-06 19:46 | 41.00446 | 3.86706 | 29821 ft | 493 kts | 108° |
| 2026-05-06 19:46 | 40.99650 | 3.91122 | 30203 ft | 493 kts | 108° |
| 2026-05-06 19:46 | 40.98860 | 3.95475 | 30555 ft | 493 kts | 108° |
| 2026-05-06 19:46 | 40.98056 | 3.99881 | 30909 ft | 493 kts | 109° |
| 2026-05-06 19:47 | 40.97249 | 4.04293 | 31268 ft | 493 kts | 109° |
| 2026-05-06 19:47 | 40.96441 | 4.08700 | 31628 ft | 493 kts | 109° |
| 2026-05-06 19:47 | 40.95633 | 4.13116 | 31992 ft | 494 kts | 109° |
| 2026-05-06 19:47 | 40.94827 | 4.17526 | 32350 ft | 494 kts | 109° |
| 2026-05-06 19:48 | 40.94017 | 4.21937 | 32698 ft | 493 kts | 109° |
| 2026-05-06 19:48 | 40.93204 | 4.26348 | 33084 ft | 493 kts | 109° |
| 2026-05-06 19:48 | 40.92388 | 4.30745 | 33453 ft | 493 kts | 109° |
| 2026-05-06 19:48 | 40.91571 | 4.35148 | 33832 ft | 493 kts | 109° |
| 2026-05-06 19:49 | 40.90756 | 4.39546 | 34158 ft | 492 kts | 109° |
| 2026-05-06 19:49 | 40.89938 | 4.43940 | 34469 ft | 492 kts | 109° |
| 2026-05-06 19:49 | 40.89122 | 4.48326 | 34793 ft | 491 kts | 109° |
| 2026-05-06 19:49 | 40.88307 | 4.52707 | 34957 ft | 491 kts | 109° |
| 2026-05-06 19:50 | 40.86674 | 4.61470 | 34991 ft | 489 kts | 109° |
| 2026-05-06 19:50 | 40.85370 | 4.70270 | 34992 ft | 494 kts | 101° |
| 2026-05-06 19:51 | 40.84546 | 4.79285 | 34994 ft | 494 kts | 101° |
| 2026-05-06 19:51 | 40.83706 | 4.88280 | 34994 ft | 494 kts | 101° |
| 2026-05-06 19:52 | 40.82860 | 4.97277 | 34984 ft | 494 kts | 101° |
| 2026-05-06 19:52 | 40.82009 | 5.06262 | 34993 ft | 493 kts | 101° |
| 2026-05-06 19:53 | 40.81151 | 5.15242 | 34994 ft | 493 kts | 101° |
| 2026-05-06 19:53 | 40.80290 | 5.24216 | 34997 ft | 493 kts | 101° |
| 2026-05-06 19:54 | 40.79423 | 5.33186 | 34997 ft | 493 kts | 101° |
| 2026-05-06 19:54 | 40.78548 | 5.42145 | 34989 ft | 492 kts | 101° |
| 2026-05-06 19:55 | 40.77675 | 5.51084 | 34995 ft | 491 kts | 101° |
| 2026-05-06 19:55 | 40.76937 | 5.58514 | 34993 ft | 491 kts | 101° |
| 2026-05-06 19:56 | 40.76037 | 5.67453 | 34994 ft | 491 kts | 101° |
| 2026-05-06 19:56 | 40.75128 | 5.76395 | 34995 ft | 491 kts | 101° |
| 2026-05-06 19:57 | 40.74218 | 5.85311 | 34998 ft | 491 kts | 101° |
| 2026-05-06 19:57 | 40.73315 | 5.94232 | 34998 ft | 491 kts | 101° |
| 2026-05-06 19:58 | 40.72401 | 6.03146 | 34996 ft | 491 kts | 101° |
| 2026-05-06 19:58 | 40.70910 | 6.11826 | 34990 ft | 480 kts | 117° |
| 2026-05-06 19:59 | 40.67684 | 6.19343 | 34997 ft | 465 kts | 135° |
| 2026-05-06 19:59 | 40.63211 | 6.25310 | 34997 ft | 456 kts | 144° |
| 2026-05-06 20:00 | 40.58545 | 6.30973 | 35000 ft | 456 kts | 144° |
| 2026-05-06 20:00 | 40.53880 | 6.36623 | 35000 ft | 456 kts | 144° |
| 2026-05-06 20:01 | 40.49207 | 6.42269 | 34996 ft | 456 kts | 144° |
| 2026-05-06 20:01 | 40.44535 | 6.47913 | 34986 ft | 455 kts | 144° |
| 2026-05-06 20:02 | 40.39881 | 6.53521 | 34997 ft | 454 kts | 144° |
| 2026-05-06 20:02 | 40.35259 | 6.59085 | 34994 ft | 454 kts | 144° |
| 2026-05-06 20:03 | 40.30572 | 6.64699 | 34994 ft | 454 kts | 144° |
| 2026-05-06 20:03 | 40.25913 | 6.70273 | 34995 ft | 454 kts | 144° |
| 2026-05-06 20:04 | 40.21269 | 6.75816 | 34994 ft | 455 kts | 144° |
| 2026-05-06 20:04 | 40.16595 | 6.81402 | 34995 ft | 455 kts | 144° |
| 2026-05-06 20:05 | 40.11919 | 6.86972 | 34996 ft | 454 kts | 144° |
| 2026-05-06 20:05 | 40.07249 | 6.92517 | 34996 ft | 454 kts | 144° |
| 2026-05-06 20:06 | 40.02578 | 6.98055 | 34987 ft | 453 kts | 144° |
| 2026-05-06 20:06 | 39.97904 | 7.03587 | 34990 ft | 454 kts | 144° |
| 2026-05-06 20:07 | 39.93231 | 7.09111 | 34986 ft | 453 kts | 144° |
| 2026-05-06 20:07 | 39.88557 | 7.14620 | 34983 ft | 453 kts | 144° |
| 2026-05-06 20:08 | 39.83877 | 7.20127 | 34984 ft | 453 kts | 144° |
| 2026-05-06 20:08 | 39.79205 | 7.25628 | 34976 ft | 452 kts | 143° |
| 2026-05-06 20:09 | 39.74516 | 7.31129 | 34991 ft | 452 kts | 143° |
| 2026-05-06 20:09 | 39.69844 | 7.36586 | 34991 ft | 452 kts | 143° |
| 2026-05-06 20:10 | 39.65171 | 7.42044 | 34991 ft | 452 kts | 143° |
| 2026-05-06 20:10 | 39.60498 | 7.47491 | 34991 ft | 452 kts | 143° |
| 2026-05-06 20:11 | 39.55824 | 7.52931 | 34974 ft | 452 kts | 143° |
| 2026-05-06 20:11 | 39.51178 | 7.58323 | 34990 ft | 451 kts | 143° |
| 2026-05-06 20:12 | 39.46509 | 7.63732 | 34989 ft | 450 kts | 143° |
| 2026-05-06 20:12 | 39.41845 | 7.69129 | 34989 ft | 450 kts | 143° |
| 2026-05-06 20:13 | 39.37179 | 7.74519 | 34992 ft | 450 kts | 143° |
| 2026-05-06 20:13 | 39.32512 | 7.79901 | 34992 ft | 450 kts | 143° |
| 2026-05-06 20:14 | 39.27844 | 7.85278 | 34995 ft | 450 kts | 143° |
| 2026-05-06 20:14 | 39.23167 | 7.90642 | 34994 ft | 450 kts | 143° |
| 2026-05-06 20:15 | 39.18489 | 7.95992 | 34990 ft | 450 kts | 143° |
| 2026-05-06 20:15 | 39.13931 | 8.01522 | 34988 ft | 453 kts | 136° |
| 2026-05-06 20:16 | 39.09731 | 8.07578 | 34991 ft | 453 kts | 136° |
| 2026-05-06 20:16 | 39.05523 | 8.13615 | 34985 ft | 454 kts | 137° |
| 2026-05-06 20:17 | 39.01286 | 8.19685 | 34991 ft | 457 kts | 137° |
| 2026-05-06 20:17 | 38.97042 | 8.25763 | 34981 ft | 457 kts | 137° |
| 2026-05-06 20:18 | 38.92792 | 8.31830 | 34990 ft | 457 kts | 137° |
| 2026-05-06 20:18 | 38.88533 | 8.37887 | 34990 ft | 457 kts | 137° |
| 2026-05-06 20:19 | 38.84276 | 8.43941 | 34986 ft | 457 kts | 137° |
| 2026-05-06 20:19 | 38.80006 | 8.50004 | 34980 ft | 459 kts | 138° |
| 2026-05-06 20:20 | 38.75697 | 8.56098 | 34986 ft | 462 kts | 138° |
| 2026-05-06 20:20 | 38.71377 | 8.62203 | 34986 ft | 463 kts | 138° |
| 2026-05-06 20:21 | 38.67051 | 8.68306 | 34989 ft | 463 kts | 138° |
| 2026-05-06 20:21 | 38.62715 | 8.74397 | 34987 ft | 464 kts | 139° |
| 2026-05-06 20:22 | 38.58359 | 8.80500 | 34986 ft | 465 kts | 139° |
| 2026-05-06 20:22 | 38.53988 | 8.86615 | 34981 ft | 469 kts | 140° |
| 2026-05-06 20:23 | 38.49560 | 8.92809 | 34986 ft | 474 kts | 140° |
| 2026-05-06 20:23 | 38.45105 | 8.99026 | 34986 ft | 475 kts | 140° |
| 2026-05-06 20:24 | 38.40648 | 9.05233 | 34986 ft | 475 kts | 140° |
| 2026-05-06 20:24 | 38.36185 | 9.11445 | 34977 ft | 476 kts | 140° |
| 2026-05-06 20:25 | 38.31734 | 9.17613 | 34983 ft | 477 kts | 140° |
| 2026-05-06 20:25 | 38.27193 | 9.23881 | 34975 ft | 483 kts | 142° |
| 2026-05-06 20:26 | 38.22623 | 9.30175 | 34978 ft | 490 kts | 142° |
| 2026-05-06 20:26 | 38.18004 | 9.36558 | 34978 ft | 491 kts | 142° |
| 2026-05-06 20:27 | 38.13378 | 9.42939 | 34972 ft | 491 kts | 142° |
| 2026-05-06 20:27 | 38.08739 | 9.49312 | 34979 ft | 493 kts | 143° |
| 2026-05-06 20:28 | 38.04076 | 9.55706 | 34973 ft | 494 kts | 143° |
| 2026-05-06 20:28 | 37.99401 | 9.62102 | 34967 ft | 494 kts | 143° |
| 2026-05-06 20:29 | 37.94729 | 9.68498 | 34971 ft | 495 kts | 143° |
| 2026-05-06 20:29 | 37.90052 | 9.74886 | 34961 ft | 494 kts | 143° |
| 2026-05-06 20:30 | 37.83019 | 9.84427 | 34939 ft | 494 kts | 143° |
| 2026-05-06 20:31 | 37.78321 | 9.90790 | 34956 ft | 495 kts | 143° |
| 2026-05-06 20:31 | 37.73613 | 9.97171 | 34954 ft | 499 kts | 144° |
| 2026-05-06 20:32 | 37.68866 | 10.03586 | 34953 ft | 500 kts | 144° |
| 2026-05-06 20:32 | 37.64110 | 10.09994 | 34948 ft | 500 kts | 144° |
| 2026-05-06 20:33 | 37.59347 | 10.16382 | 34951 ft | 500 kts | 144° |
| 2026-05-06 20:33 | 37.54583 | 10.22776 | 34939 ft | 501 kts | 144° |
| 2026-05-06 20:34 | 37.49805 | 10.29174 | 34915 ft | 501 kts | 144° |
| 2026-05-06 20:34 | 37.45021 | 10.35561 | 34947 ft | 501 kts | 144° |
| 2026-05-06 20:35 | 37.40238 | 10.41940 | 34947 ft | 501 kts | 144° |
| 2026-05-06 20:35 | 37.35454 | 10.48324 | 34947 ft | 501 kts | 144° |
| 2026-05-06 20:36 | 37.30664 | 10.54690 | 34946 ft | 501 kts | 144° |
| 2026-05-06 20:36 | 37.25874 | 10.61054 | 34950 ft | 502 kts | 144° |
| 2026-05-06 20:37 | 37.21078 | 10.67414 | 34947 ft | 502 kts | 144° |
| 2026-05-06 20:37 | 37.16270 | 10.73767 | 34942 ft | 502 kts | 144° |
| 2026-05-06 20:38 | 37.11467 | 10.80110 | 34941 ft | 502 kts | 144° |
| 2026-05-06 20:38 | 37.06653 | 10.86445 | 34939 ft | 502 kts | 144° |
| 2026-05-06 20:39 | 37.02649 | 10.91696 | 34935 ft | 501 kts | 144° |
| 2026-05-06 20:39 | 36.97833 | 10.98000 | 34931 ft | 501 kts | 144° |
| 2026-05-06 20:40 | 36.93014 | 11.04309 | 34935 ft | 502 kts | 144° |
| 2026-05-06 20:40 | 36.88213 | 11.10657 | 34923 ft | 504 kts | 143° |
| 2026-05-06 20:41 | 36.83642 | 11.17362 | 34920 ft | 510 kts | 139° |
| 2026-05-06 20:41 | 36.79197 | 11.24275 | 34914 ft | 510 kts | 139° |
| 2026-05-06 20:42 | 36.74716 | 11.31129 | 34896 ft | 509 kts | 140° |
| 2026-05-06 20:42 | 36.70174 | 11.37899 | 34911 ft | 509 kts | 140° |
| 2026-05-06 20:43 | 36.65607 | 11.44643 | 34914 ft | 510 kts | 140° |
| 2026-05-06 20:43 | 36.63509 | 11.48263 | 34903 ft | 522 kts | 129° |
| 2026-05-06 20:43 | 36.61830 | 11.52320 | 34910 ft | 533 kts | 119° |
| 2026-05-06 20:44 | 36.59747 | 11.61277 | 34898 ft | 542 kts | 109° |
| 2026-05-06 20:44 | 36.57925 | 11.70382 | 34898 ft | 542 kts | 109° |
| 2026-05-06 20:45 | 36.56074 | 11.79476 | 34906 ft | 542 kts | 109° |
| 2026-05-06 20:45 | 36.54214 | 11.88568 | 34901 ft | 542 kts | 109° |
| 2026-05-06 20:46 | 36.52358 | 11.97655 | 34885 ft | 542 kts | 109° |
| 2026-05-06 20:46 | 36.50500 | 12.06744 | 34872 ft | 542 kts | 108° |
| 2026-05-06 20:47 | 36.48634 | 12.15832 | 34884 ft | 543 kts | 109° |
| 2026-05-06 20:47 | 36.46758 | 12.24910 | 34886 ft | 543 kts | 109° |
| 2026-05-06 20:48 | 36.44872 | 12.33987 | 34880 ft | 543 kts | 109° |
| 2026-05-06 20:48 | 36.42982 | 12.43059 | 34871 ft | 543 kts | 108° |
| 2026-05-06 20:49 | 36.41079 | 12.52129 | 34878 ft | 543 kts | 108° |
| 2026-05-06 20:49 | 36.39172 | 12.61201 | 34878 ft | 543 kts | 108° |
| 2026-05-06 20:50 | 36.37259 | 12.70271 | 34878 ft | 543 kts | 108° |
| 2026-05-06 20:50 | 36.35340 | 12.79336 | 34872 ft | 543 kts | 108° |
| 2026-05-06 20:51 | 36.33421 | 12.88383 | 34864 ft | 542 kts | 108° |
| 2026-05-06 20:51 | 36.31492 | 12.97415 | 34868 ft | 542 kts | 108° |
| 2026-05-06 20:52 | 36.29556 | 13.06445 | 34874 ft | 542 kts | 108° |
| 2026-05-06 20:52 | 36.27609 | 13.15475 | 34873 ft | 542 kts | 108° |
| 2026-05-06 20:53 | 36.25655 | 13.24499 | 34876 ft | 542 kts | 108° |
| 2026-05-06 20:53 | 36.23648 | 13.33509 | 34891 ft | 543 kts | 108° |
| 2026-05-06 20:54 | 36.21609 | 13.42520 | 34883 ft | 543 kts | 109° |
| 2026-05-06 20:54 | 36.19567 | 13.51529 | 34893 ft | 543 kts | 108° |
| 2026-05-06 20:55 | 36.17521 | 13.60527 | 34892 ft | 543 kts | 108° |
| 2026-05-06 20:55 | 36.15474 | 13.69517 | 34897 ft | 543 kts | 108° |
| 2026-05-06 20:56 | 36.13445 | 13.78447 | 34900 ft | 543 kts | 108° |
| 2026-05-06 20:56 | 36.11396 | 13.87432 | 34895 ft | 543 kts | 108° |
| 2026-05-06 20:57 | 36.09325 | 13.96412 | 34913 ft | 543 kts | 108° |
| 2026-05-06 20:57 | 36.07242 | 14.05382 | 34904 ft | 543 kts | 108° |
| 2026-05-06 20:58 | 36.05162 | 14.14346 | 34908 ft | 543 kts | 108° |
| 2026-05-06 20:58 | 36.03058 | 14.23304 | 34907 ft | 542 kts | 109° |
| 2026-05-06 20:59 | 36.00681 | 14.32135 | 34909 ft | 541 kts | 111° |
| 2026-05-06 20:59 | 35.98134 | 14.40878 | 34915 ft | 541 kts | 111° |
| 2026-05-06 21:00 | 35.95621 | 14.49641 | 34907 ft | 542 kts | 111° |
| 2026-05-06 21:00 | 35.93178 | 14.58439 | 34919 ft | 542 kts | 110° |
| 2026-05-06 21:01 | 35.90745 | 14.67240 | 34930 ft | 542 kts | 111° |
| 2026-05-06 21:01 | 35.88283 | 14.76022 | 34929 ft | 542 kts | 111° |
| 2026-05-06 21:02 | 35.85809 | 14.84789 | 34934 ft | 542 kts | 111° |
| 2026-05-06 21:02 | 35.83317 | 14.93555 | 34938 ft | 541 kts | 110° |
| 2026-05-06 21:03 | 35.80831 | 15.02290 | 34939 ft | 540 kts | 110° |
| 2026-05-06 21:03 | 35.78353 | 15.11017 | 34916 ft | 541 kts | 110° |
| 2026-05-06 21:04 | 35.75828 | 15.19873 | 34944 ft | 556 kts | 110° |
| 2026-05-06 21:04 | 35.73228 | 15.28943 | 34945 ft | 567 kts | 110° |
| 2026-05-06 21:05 | 35.70571 | 15.38156 | 34954 ft | 575 kts | 110° |
| 2026-05-06 21:05 | 35.67882 | 15.47485 | 35123 ft | 578 kts | 110° |
| 2026-05-06 21:05 | 35.66549 | 15.52116 | 35562 ft | 571 kts | 110° |
| 2026-05-06 21:06 | 35.65233 | 15.56687 | 35992 ft | 564 kts | 110° |
| 2026-05-06 21:06 | 35.63931 | 15.61210 | 36420 ft | 555 kts | 110° |
| 2026-05-06 21:06 | 35.62661 | 15.65630 | 36837 ft | 545 kts | 110° |
| 2026-05-06 21:06 | 35.61405 | 15.70003 | 37263 ft | 540 kts | 110° |
| 2026-05-06 21:07 | 35.60158 | 15.74343 | 37705 ft | 536 kts | 110° |
| 2026-05-06 21:07 | 35.58925 | 15.78639 | 38168 ft | 531 kts | 110° |
| 2026-05-06 21:07 | 35.57704 | 15.82891 | 38647 ft | 525 kts | 111° |
| 2026-05-06 21:07 | 35.56499 | 15.87094 | 39043 ft | 518 kts | 110° |
| 2026-05-06 21:08 | 35.55315 | 15.91231 | 39466 ft | 511 kts | 110° |
| 2026-05-06 21:08 | 35.54143 | 15.95324 | 39899 ft | 503 kts | 110° |
| 2026-05-06 21:08 | 35.52996 | 15.99337 | 40340 ft | 494 kts | 110° |
| 2026-05-06 21:08 | 35.51870 | 16.03282 | 40794 ft | 484 kts | 110° |
| 2026-05-06 21:09 | 35.50768 | 16.07142 | 41256 ft | 474 kts | 110° |
| 2026-05-06 21:09 | 35.49694 | 16.10908 | 41703 ft | 462 kts | 109° |
| 2026-05-06 21:09 | 35.48648 | 16.14577 | 42135 ft | 450 kts | 109° |
| 2026-05-06 21:09 | 35.47639 | 16.18120 | 42378 ft | 443 kts | 109° |
| 2026-05-06 21:10 | 35.46619 | 16.21703 | 42186 ft | 449 kts | 109° |
| 2026-05-06 21:10 | 35.45577 | 16.25361 | 41739 ft | 460 kts | 109° |
| 2026-05-06 21:10 | 35.44514 | 16.29093 | 41486 ft | 466 kts | 109° |
| 2026-05-06 21:10 | 35.43451 | 16.32829 | 41652 ft | 460 kts | 109° |
| 2026-05-06 21:11 | 35.42396 | 16.36536 | 42034 ft | 449 kts | 109° |
| 2026-05-06 21:11 | 35.41375 | 16.40124 | 42191 ft | 445 kts | 109° |
| 2026-05-06 21:11 | 35.40366 | 16.43670 | 41980 ft | 450 kts | 109° |
| 2026-05-06 21:11 | 35.39324 | 16.47335 | 41602 ft | 460 kts | 109° |
| 2026-05-06 21:12 | 35.38265 | 16.51058 | 41431 ft | 464 kts | 109° |
| 2026-05-06 21:12 | 35.37208 | 16.54776 | 41598 ft | 458 kts | 109° |
| 2026-05-06 21:12 | 35.36172 | 16.58424 | 41890 ft | 449 kts | 109° |
| 2026-05-06 21:12 | 35.35151 | 16.62018 | 42017 ft | 446 kts | 109° |
| 2026-05-06 21:13 | 35.34126 | 16.65623 | 41818 ft | 452 kts | 109° |
| 2026-05-06 21:13 | 35.33085 | 16.69290 | 41498 ft | 460 kts | 109° |
| 2026-05-06 21:13 | 35.32030 | 16.73004 | 41380 ft | 462 kts | 109° |
| 2026-05-06 21:13 | 35.30982 | 16.76697 | 41575 ft | 456 kts | 108° |
| 2026-05-06 21:14 | 35.29951 | 16.80324 | 41849 ft | 448 kts | 109° |
| 2026-05-06 21:14 | 35.27909 | 16.87516 | 41702 ft | 452 kts | 109° |
| 2026-05-06 21:14 | 35.26870 | 16.91178 | 41433 ft | 459 kts | 109° |
| 2026-05-06 21:15 | 35.25820 | 16.94880 | 41367 ft | 460 kts | 108° |
| 2026-05-06 21:15 | 35.24775 | 16.98562 | 41539 ft | 454 kts | 108° |
| 2026-05-06 21:15 | 35.23748 | 17.02182 | 41765 ft | 448 kts | 108° |
| 2026-05-06 21:16 | 35.21706 | 17.09382 | 41609 ft | 453 kts | 108° |
| 2026-05-06 21:16 | 35.20668 | 17.13046 | 41368 ft | 459 kts | 108° |
| 2026-05-06 21:16 | 35.19621 | 17.16744 | 41317 ft | 460 kts | 108° |
| 2026-05-06 21:16 | 35.18581 | 17.20416 | 41491 ft | 454 kts | 108° |
| 2026-05-06 21:17 | 35.17555 | 17.24040 | 41695 ft | 448 kts | 108° |
| 2026-05-06 21:17 | 35.15514 | 17.31247 | 41554 ft | 452 kts | 108° |
| 2026-05-06 21:17 | 35.14479 | 17.34905 | 41361 ft | 458 kts | 108° |
| 2026-05-06 21:18 | 35.13438 | 17.38584 | 41317 ft | 459 kts | 108° |
| 2026-05-06 21:18 | 35.12402 | 17.42250 | 41474 ft | 454 kts | 108° |
| 2026-05-06 21:18 | 35.11377 | 17.45870 | 41670 ft | 448 kts | 108° |
| 2026-05-06 21:19 | 35.09340 | 17.53071 | 41552 ft | 452 kts | 108° |
| 2026-05-06 21:19 | 35.08310 | 17.56714 | 41373 ft | 457 kts | 108° |
| 2026-05-06 21:19 | 35.07273 | 17.60386 | 41342 ft | 457 kts | 108° |
| 2026-05-06 21:19 | 35.06240 | 17.64042 | 41475 ft | 453 kts | 108° |
| 2026-05-06 21:20 | 35.05219 | 17.67655 | 41624 ft | 449 kts | 108° |
| 2026-05-06 21:20 | 35.03183 | 17.74860 | 41510 ft | 452 kts | 107° |
| 2026-05-06 21:20 | 35.02154 | 17.78504 | 41371 ft | 456 kts | 107° |
| 2026-05-06 21:21 | 35.01122 | 17.82161 | 41367 ft | 456 kts | 107° |
| 2026-05-06 21:21 | 35.00096 | 17.85799 | 41497 ft | 451 kts | 107° |
| 2026-05-06 21:21 | 34.99079 | 17.89404 | 41627 ft | 448 kts | 107° |
| 2026-05-06 21:22 | 34.97047 | 17.96605 | 41484 ft | 452 kts | 107° |
| 2026-05-06 21:22 | 34.95341 | 18.02662 | 41369 ft | 455 kts | 107° |
| 2026-05-06 21:23 | 34.93300 | 18.09909 | 41576 ft | 449 kts | 107° |
| 2026-05-06 21:23 | 34.91274 | 18.17105 | 41508 ft | 451 kts | 107° |
| 2026-05-06 21:23 | 34.90252 | 18.20737 | 41394 ft | 454 kts | 107° |
| 2026-05-06 21:24 | 34.89228 | 18.24378 | 41381 ft | 454 kts | 107° |
| 2026-05-06 21:24 | 34.87195 | 18.31613 | 41568 ft | 449 kts | 107° |
| 2026-05-06 21:25 | 34.85174 | 18.38802 | 41492 ft | 451 kts | 107° |
| 2026-05-06 21:25 | 34.83137 | 18.46061 | 41399 ft | 454 kts | 107° |
| 2026-05-06 21:26 | 34.81109 | 18.53288 | 41548 ft | 449 kts | 107° |
| 2026-05-06 21:26 | 34.79088 | 18.60491 | 41473 ft | 451 kts | 107° |
| 2026-05-06 21:27 | 34.77056 | 18.67741 | 41393 ft | 453 kts | 107° |
| 2026-05-06 21:27 | 34.75033 | 18.74966 | 41529 ft | 449 kts | 107° |
| 2026-05-06 21:28 | 34.73017 | 18.82162 | 41482 ft | 451 kts | 107° |
| 2026-05-06 21:28 | 34.70991 | 18.89405 | 41423 ft | 453 kts | 107° |
| 2026-05-06 21:29 | 34.68973 | 18.96621 | 41542 ft | 449 kts | 107° |
| 2026-05-06 21:29 | 34.66959 | 19.03822 | 41483 ft | 451 kts | 107° |
| 2026-05-06 21:30 | 34.64938 | 19.11056 | 41452 ft | 452 kts | 107° |
| 2026-05-06 21:30 | 34.62929 | 19.18246 | 41636 ft | 447 kts | 106° |
| 2026-05-06 21:31 | 34.60934 | 19.25384 | 41595 ft | 448 kts | 106° |
| 2026-05-06 21:31 | 34.58924 | 19.32588 | 41476 ft | 451 kts | 106° |
| 2026-05-06 21:32 | 34.56920 | 19.39767 | 41646 ft | 447 kts | 106° |
| 2026-05-06 21:32 | 34.53929 | 19.50490 | 41594 ft | 448 kts | 106° |
| 2026-05-06 21:33 | 34.52936 | 19.54054 | 41701 ft | 445 kts | 106° |
| 2026-05-06 21:33 | 34.51947 | 19.57597 | 41788 ft | 442 kts | 106° |
| 2026-05-06 21:33 | 34.49972 | 19.64679 | 41652 ft | 446 kts | 106° |
| 2026-05-06 21:34 | 34.47982 | 19.71826 | 41604 ft | 447 kts | 106° |
| 2026-05-06 21:34 | 34.46992 | 19.75386 | 41706 ft | 444 kts | 106° |
| 2026-05-06 21:34 | 34.46007 | 19.78920 | 41772 ft | 442 kts | 106° |
| 2026-05-06 21:35 | 34.44042 | 19.85975 | 41806 ft | 441 kts | 106° |
| 2026-05-06 21:35 | 34.42086 | 19.93000 | 41836 ft | 440 kts | 106° |
| 2026-05-06 21:36 | 34.40128 | 20.00036 | 41761 ft | 442 kts | 106° |
| 2026-05-06 21:36 | 34.38182 | 20.07035 | 41791 ft | 441 kts | 106° |
| 2026-05-06 21:37 | 34.36230 | 20.14057 | 41818 ft | 440 kts | 107° |
| 2026-05-06 21:37 | 34.34285 | 20.21055 | 41873 ft | 438 kts | 107° |
| 2026-05-06 21:38 | 34.32347 | 20.28030 | 41863 ft | 438 kts | 106° |
| 2026-05-06 21:38 | 34.30404 | 20.35029 | 41792 ft | 439 kts | 106° |
| 2026-05-06 21:39 | 34.28464 | 20.42019 | 41847 ft | 437 kts | 106° |
| 2026-05-06 21:39 | 34.26531 | 20.48984 | 41840 ft | 437 kts | 107° |
| 2026-05-06 21:40 | 34.24597 | 20.55958 | 41845 ft | 437 kts | 107° |
| 2026-05-06 21:40 | 34.22670 | 20.62910 | 41859 ft | 436 kts | 107° |
| 2026-05-06 21:41 | 34.20742 | 20.69871 | 41812 ft | 437 kts | 107° |
| 2026-05-06 21:41 | 34.18815 | 20.76830 | 41831 ft | 436 kts | 106° |
| 2026-05-06 21:42 | 34.16892 | 20.83775 | 41845 ft | 436 kts | 107° |
| 2026-05-06 21:42 | 34.14970 | 20.90721 | 41832 ft | 436 kts | 107° |
| 2026-05-06 21:43 | 34.13063 | 20.97616 | 41827 ft | 436 kts | 107° |
| 2026-05-06 21:43 | 34.11144 | 21.04554 | 41818 ft | 436 kts | 107° |
| 2026-05-06 21:44 | 34.09223 | 21.11505 | 41815 ft | 436 kts | 107° |
| 2026-05-06 21:44 | 34.07310 | 21.18431 | 41890 ft | 433 kts | 107° |
| 2026-05-06 21:45 | 34.05411 | 21.25298 | 41948 ft | 432 kts | 107° |
| 2026-05-06 21:45 | 34.03506 | 21.32199 | 41810 ft | 435 kts | 106° |
| 2026-05-06 21:46 | 34.01600 | 21.39101 | 41920 ft | 432 kts | 106° |
| 2026-05-06 21:46 | 33.99706 | 21.45962 | 41887 ft | 433 kts | 106° |
| 2026-05-06 21:47 | 33.97815 | 21.52822 | 41811 ft | 434 kts | 106° |
| 2026-05-06 21:47 | 33.95918 | 21.59699 | 41921 ft | 431 kts | 106° |
| 2026-05-06 21:48 | 33.94025 | 21.66566 | 41832 ft | 434 kts | 106° |
| 2026-05-06 21:48 | 33.92124 | 21.73468 | 41834 ft | 433 kts | 106° |
| 2026-05-06 21:49 | 33.90234 | 21.80329 | 41911 ft | 431 kts | 106° |
| 2026-05-06 21:49 | 33.88352 | 21.87162 | 41978 ft | 429 kts | 106° |
| 2026-05-06 21:50 | 33.86474 | 21.93980 | 41930 ft | 430 kts | 106° |
| 2026-05-06 21:50 | 33.84593 | 22.00815 | 41913 ft | 430 kts | 106° |
| 2026-05-06 21:51 | 33.82717 | 22.07633 | 41956 ft | 429 kts | 106° |
| 2026-05-06 21:51 | 33.80843 | 22.14449 | 41912 ft | 430 kts | 106° |
| 2026-05-06 21:52 | 33.78979 | 22.21227 | 42101 ft | 424 kts | 106° |
| 2026-05-06 21:52 | 33.77126 | 22.27968 | 41983 ft | 427 kts | 106° |
| 2026-05-06 21:53 | 33.75258 | 22.34773 | 41940 ft | 428 kts | 106° |
| 2026-05-06 21:53 | 33.73405 | 22.41520 | 42072 ft | 424 kts | 106° |
| 2026-05-06 21:54 | 33.71551 | 22.48275 | 41945 ft | 427 kts | 106° |
| 2026-05-06 21:54 | 33.69704 | 22.55006 | 42162 ft | 421 kts | 106° |
| 2026-05-06 21:55 | 33.67871 | 22.61687 | 42037 ft | 424 kts | 106° |
| 2026-05-06 21:55 | 33.66032 | 22.68397 | 41984 ft | 425 kts | 106° |
| 2026-05-06 21:56 | 33.65112 | 22.71752 | 42102 ft | 422 kts | 106° |
| 2026-05-06 21:56 | 33.64197 | 22.75087 | 42144 ft | 420 kts | 106° |
| 2026-05-06 21:56 | 33.62363 | 22.81784 | 42020 ft | 424 kts | 107° |
| 2026-05-06 21:57 | 33.61447 | 22.85128 | 42128 ft | 420 kts | 107° |
| 2026-05-06 21:57 | 33.60539 | 22.88444 | 42234 ft | 417 kts | 107° |
| 2026-05-06 21:57 | 33.58723 | 22.95075 | 42065 ft | 421 kts | 107° |
| 2026-05-06 21:58 | 33.56892 | 23.01768 | 42064 ft | 421 kts | 107° |
| 2026-05-06 21:58 | 33.55985 | 23.05085 | 42178 ft | 417 kts | 107° |
| 2026-05-06 21:58 | 33.55080 | 23.08390 | 42186 ft | 417 kts | 107° |
| 2026-05-06 21:59 | 33.53264 | 23.15033 | 42077 ft | 420 kts | 107° |
| 2026-05-06 21:59 | 33.52360 | 23.18341 | 42197 ft | 416 kts | 107° |
| 2026-05-06 21:59 | 33.51461 | 23.21625 | 42273 ft | 414 kts | 107° |
| 2026-05-06 22:00 | 33.49660 | 23.28213 | 42084 ft | 419 kts | 107° |
| 2026-05-06 22:00 | 33.47849 | 23.34847 | 42141 ft | 417 kts | 107° |
| 2026-05-06 22:01 | 33.46056 | 23.41407 | 42212 ft | 415 kts | 107° |
| 2026-05-06 22:01 | 33.44256 | 23.48005 | 42089 ft | 417 kts | 107° |
| 2026-05-06 22:02 | 33.42462 | 23.54576 | 42217 ft | 413 kts | 107° |
| 2026-05-06 22:02 | 33.40671 | 23.61139 | 42068 ft | 417 kts | 107° |
| 2026-05-06 22:03 | 33.38872 | 23.67739 | 42117 ft | 415 kts | 107° |
| 2026-05-06 22:03 | 33.37088 | 23.74284 | 42156 ft | 414 kts | 107° |
| 2026-05-06 22:04 | 33.35296 | 23.80862 | 42063 ft | 416 kts | 107° |
| 2026-05-06 22:04 | 33.33511 | 23.87414 | 42182 ft | 413 kts | 107° |
| 2026-05-06 22:05 | 33.31730 | 23.93956 | 42086 ft | 415 kts | 107° |
| 2026-05-06 22:05 | 33.29954 | 24.00482 | 42105 ft | 414 kts | 107° |
| 2026-05-06 22:06 | 33.28177 | 24.07013 | 42160 ft | 413 kts | 107° |
| 2026-05-06 22:06 | 33.26397 | 24.13562 | 42079 ft | 415 kts | 107° |
| 2026-05-06 22:07 | 33.24619 | 24.20102 | 42154 ft | 413 kts | 107° |
| 2026-05-06 22:07 | 33.22847 | 24.26627 | 42122 ft | 414 kts | 107° |
| 2026-05-06 22:08 | 33.21069 | 24.33173 | 42090 ft | 414 kts | 107° |
| 2026-05-06 22:08 | 33.19298 | 24.39697 | 42154 ft | 412 kts | 107° |
| 2026-05-06 22:09 | 33.17530 | 24.46216 | 42122 ft | 413 kts | 107° |
| 2026-05-06 22:09 | 33.15761 | 24.52740 | 42124 ft | 413 kts | 107° |
| 2026-05-06 22:10 | 33.14293 | 24.58154 | 42145 ft | 412 kts | 107° |
| 2026-05-06 22:10 | 33.12529 | 24.64668 | 42114 ft | 413 kts | 107° |
| 2026-05-06 22:11 | 33.10765 | 24.71183 | 42131 ft | 412 kts | 107° |
| 2026-05-06 22:11 | 33.09004 | 24.77692 | 42132 ft | 412 kts | 107° |
| 2026-05-06 22:12 | 33.07243 | 24.84204 | 42111 ft | 413 kts | 107° |
| 2026-05-06 22:12 | 33.05484 | 24.90712 | 42136 ft | 412 kts | 107° |
| 2026-05-06 22:13 | 33.03727 | 24.97213 | 42118 ft | 413 kts | 107° |
| 2026-05-06 22:13 | 33.01969 | 25.03722 | 42135 ft | 412 kts | 107° |
| 2026-05-06 22:14 | 33.00219 | 25.10209 | 42163 ft | 411 kts | 107° |
| 2026-05-06 22:14 | 32.98467 | 25.16705 | 42119 ft | 412 kts | 107° |
| 2026-05-06 22:15 | 32.96726 | 25.23159 | 42145 ft | 411 kts | 107° |
| 2026-05-06 22:15 | 32.94979 | 25.29644 | 42143 ft | 412 kts | 107° |
| 2026-05-06 22:16 | 32.93230 | 25.36140 | 42145 ft | 412 kts | 107° |
| 2026-05-06 22:16 | 32.91489 | 25.42607 | 42204 ft | 410 kts | 107° |
| 2026-05-06 22:17 | 32.89747 | 25.49083 | 42136 ft | 412 kts | 107° |
| 2026-05-06 22:17 | 32.88004 | 25.55565 | 42186 ft | 410 kts | 107° |
| 2026-05-06 22:18 | 32.86269 | 25.62024 | 42169 ft | 411 kts | 107° |
| 2026-05-06 22:18 | 32.84529 | 25.68504 | 42162 ft | 411 kts | 107° |
| 2026-05-06 22:19 | 32.82797 | 25.74958 | 42211 ft | 409 kts | 107° |
| 2026-05-06 22:19 | 32.81063 | 25.81422 | 42144 ft | 411 kts | 107° |
| 2026-05-06 22:20 | 32.79330 | 25.87885 | 42203 ft | 409 kts | 107° |
| 2026-05-06 22:20 | 32.77602 | 25.94335 | 42169 ft | 410 kts | 107° |
| 2026-05-06 22:21 | 32.75871 | 26.00799 | 42199 ft | 409 kts | 107° |
| 2026-05-06 22:21 | 32.74149 | 26.07232 | 42215 ft | 409 kts | 107° |
| 2026-05-06 22:22 | 32.72422 | 26.13691 | 42165 ft | 410 kts | 107° |
| 2026-05-06 22:22 | 32.70701 | 26.20131 | 42231 ft | 408 kts | 107° |
| 2026-05-06 22:23 | 32.68980 | 26.26571 | 42173 ft | 410 kts | 107° |
| 2026-05-06 22:23 | 32.67260 | 26.33013 | 42229 ft | 408 kts | 107° |
| 2026-05-06 22:24 | 32.65544 | 26.39441 | 42209 ft | 409 kts | 107° |
| 2026-05-06 22:24 | 32.63826 | 26.45885 | 42184 ft | 409 kts | 107° |
| 2026-05-06 22:25 | 32.62113 | 26.52311 | 42243 ft | 408 kts | 107° |
| 2026-05-06 22:25 | 32.60401 | 26.58738 | 42181 ft | 410 kts | 107° |
| 2026-05-06 22:26 | 32.58687 | 26.65174 | 42230 ft | 408 kts | 107° |
| 2026-05-06 22:26 | 32.56979 | 26.71592 | 42211 ft | 409 kts | 107° |
| 2026-05-06 22:27 | 32.55268 | 26.78025 | 42193 ft | 409 kts | 107° |
| 2026-05-06 22:27 | 32.53563 | 26.84441 | 42240 ft | 408 kts | 107° |
| 2026-05-06 22:28 | 32.51856 | 26.90865 | 42189 ft | 409 kts | 107° |
| 2026-05-06 22:28 | 32.50151 | 26.97287 | 42232 ft | 408 kts | 107° |
| 2026-05-06 22:29 | 32.48461 | 27.03654 | 42221 ft | 408 kts | 107° |
| 2026-05-06 22:29 | 32.46757 | 27.10078 | 42202 ft | 409 kts | 107° |
| 2026-05-06 22:30 | 32.45057 | 27.16489 | 42237 ft | 408 kts | 107° |
| 2026-05-06 22:30 | 32.43358 | 27.22903 | 42202 ft | 409 kts | 107° |
| 2026-05-06 22:31 | 32.41659 | 27.29317 | 42233 ft | 408 kts | 107° |
| 2026-05-06 22:31 | 32.39964 | 27.35719 | 42233 ft | 408 kts | 107° |
| 2026-05-06 22:32 | 32.38268 | 27.42131 | 42213 ft | 408 kts | 107° |
| 2026-05-06 22:32 | 32.36574 | 27.48534 | 42255 ft | 407 kts | 107° |
| 2026-05-06 22:33 | 32.34881 | 27.54937 | 42220 ft | 408 kts | 107° |
| 2026-05-06 22:33 | 32.33189 | 27.61340 | 42243 ft | 408 kts | 107° |
| 2026-05-06 22:34 | 32.31500 | 27.67736 | 42245 ft | 408 kts | 107° |
| 2026-05-06 22:34 | 32.29810 | 27.74138 | 42225 ft | 408 kts | 107° |
| 2026-05-06 22:35 | 32.28123 | 27.80533 | 42257 ft | 407 kts | 107° |
| 2026-05-06 22:35 | 32.26436 | 27.86927 | 42237 ft | 408 kts | 107° |
| 2026-05-06 22:36 | 32.24749 | 27.93324 | 42248 ft | 408 kts | 107° |
| 2026-05-06 22:36 | 32.23065 | 27.99715 | 42256 ft | 407 kts | 107° |
| 2026-05-06 22:37 | 32.21382 | 28.06107 | 42244 ft | 408 kts | 107° |
| 2026-05-06 22:37 | 32.19700 | 28.12492 | 42309 ft | 406 kts | 107° |
| 2026-05-06 22:38 | 32.18024 | 28.18862 | 42284 ft | 407 kts | 107° |
| 2026-05-06 22:38 | 32.16344 | 28.25248 | 42280 ft | 407 kts | 107° |
| 2026-05-06 22:39 | 32.14670 | 28.31617 | 42306 ft | 406 kts | 107° |
| 2026-05-06 22:39 | 32.13007 | 28.37947 | 42263 ft | 407 kts | 107° |
| 2026-05-06 22:40 | 32.11333 | 28.44321 | 42312 ft | 406 kts | 107° |
| 2026-05-06 22:40 | 32.09664 | 28.50683 | 42291 ft | 407 kts | 107° |
| 2026-05-06 22:41 | 32.07159 | 28.60236 | 42317 ft | 406 kts | 107° |
| 2026-05-06 22:42 | 32.05492 | 28.66596 | 42290 ft | 406 kts | 107° |
| 2026-05-06 22:42 | 32.03824 | 28.72967 | 42285 ft | 406 kts | 107° |
| 2026-05-06 22:43 | 32.02161 | 28.79320 | 42315 ft | 406 kts | 107° |
| 2026-05-06 22:43 | 32.00497 | 28.85683 | 42280 ft | 407 kts | 107° |
| 2026-05-06 22:44 | 31.98834 | 28.92043 | 42311 ft | 406 kts | 107° |
| 2026-05-06 22:44 | 31.97176 | 28.98393 | 42296 ft | 406 kts | 107° |
| 2026-05-06 22:45 | 31.95516 | 29.04748 | 42295 ft | 406 kts | 107° |
| 2026-05-06 22:45 | 31.93860 | 29.11094 | 42316 ft | 405 kts | 107° |
| 2026-05-06 22:46 | 31.92203 | 29.17446 | 42290 ft | 406 kts | 107° |
| 2026-05-06 22:46 | 31.90549 | 29.23790 | 42315 ft | 405 kts | 107° |
| 2026-05-06 22:47 | 31.88898 | 29.30131 | 42316 ft | 405 kts | 107° |
| 2026-05-06 22:47 | 31.87247 | 29.36471 | 42309 ft | 405 kts | 107° |
| 2026-05-06 22:48 | 31.85598 | 29.42808 | 42320 ft | 405 kts | 107° |
| 2026-05-06 22:48 | 31.83952 | 29.49141 | 42316 ft | 405 kts | 107° |
| 2026-05-06 22:49 | 31.82317 | 29.55432 | 42313 ft | 405 kts | 108° |
| 2026-05-06 22:49 | 31.80673 | 29.61761 | 42331 ft | 404 kts | 108° |
| 2026-05-06 22:50 | 31.79033 | 29.68086 | 42314 ft | 405 kts | 108° |
| 2026-05-06 22:50 | 31.77391 | 29.74417 | 42326 ft | 405 kts | 108° |
| 2026-05-06 22:51 | 31.75754 | 29.80738 | 42326 ft | 404 kts | 108° |
| 2026-05-06 22:51 | 31.74117 | 29.87062 | 42337 ft | 404 kts | 108° |
| 2026-05-06 22:52 | 31.72485 | 29.93371 | 42346 ft | 404 kts | 108° |
| 2026-05-06 22:52 | 31.70852 | 29.99690 | 42323 ft | 404 kts | 108° |
| 2026-05-06 22:53 | 31.69221 | 30.06005 | 42348 ft | 404 kts | 108° |
| 2026-05-06 22:53 | 31.67592 | 30.12313 | 42327 ft | 404 kts | 108° |
| 2026-05-06 22:54 | 31.65962 | 30.18631 | 42336 ft | 404 kts | 108° |
| 2026-05-06 22:54 | 31.64337 | 30.24934 | 42354 ft | 404 kts | 108° |
| 2026-05-06 22:55 | 31.62711 | 30.31243 | 42323 ft | 404 kts | 108° |
| 2026-05-06 22:55 | 31.61087 | 30.37549 | 42356 ft | 403 kts | 108° |
| 2026-05-06 22:56 | 31.59465 | 30.43851 | 42349 ft | 404 kts | 108° |
| 2026-05-06 22:56 | 31.57844 | 30.50153 | 42354 ft | 403 kts | 108° |
| 2026-05-06 22:57 | 31.56225 | 30.56450 | 42359 ft | 403 kts | 108° |
| 2026-05-06 22:57 | 31.54608 | 30.62746 | 42358 ft | 403 kts | 108° |
| 2026-05-06 22:58 | 31.53264 | 30.67979 | 42367 ft | 403 kts | 108° |
| 2026-05-06 22:58 | 31.51649 | 30.74272 | 42363 ft | 403 kts | 108° |
| 2026-05-06 22:59 | 31.50034 | 30.80568 | 42370 ft | 403 kts | 108° |
| 2026-05-06 22:59 | 31.48422 | 30.86858 | 42379 ft | 403 kts | 108° |
| 2026-05-06 23:00 | 31.46810 | 30.93150 | 42371 ft | 403 kts | 108° |
| 2026-05-06 23:00 | 31.45200 | 30.99440 | 42362 ft | 403 kts | 108° |
| 2026-05-06 23:01 | 31.43590 | 31.05732 | 42353 ft | 404 kts | 108° |
| 2026-05-06 23:01 | 31.41980 | 31.12026 | 42378 ft | 403 kts | 108° |
| 2026-05-06 23:02 | 31.40373 | 31.18312 | 42367 ft | 403 kts | 108° |
| 2026-05-06 23:02 | 31.38767 | 31.24602 | 42373 ft | 403 kts | 108° |
| 2026-05-06 23:03 | 31.37161 | 31.30891 | 42376 ft | 403 kts | 108° |
| 2026-05-06 23:03 | 31.35555 | 31.37184 | 42371 ft | 404 kts | 108° |
| 2026-05-06 23:04 | 31.33952 | 31.43470 | 42394 ft | 403 kts | 108° |
| 2026-05-06 23:04 | 31.32350 | 31.49758 | 42382 ft | 403 kts | 108° |
| 2026-05-06 23:05 | 31.30748 | 31.56046 | 42386 ft | 403 kts | 109° |
| 2026-05-06 23:05 | 31.29149 | 31.62329 | 42395 ft | 403 kts | 109° |
| 2026-05-06 23:06 | 31.27548 | 31.68619 | 42396 ft | 404 kts | 109° |
| 2026-05-06 23:06 | 31.25950 | 31.74902 | 42418 ft | 403 kts | 109° |
| 2026-05-06 23:07 | 31.24364 | 31.81143 | 42398 ft | 404 kts | 109° |
| 2026-05-06 23:07 | 31.22764 | 31.87439 | 42366 ft | 405 kts | 109° |
| 2026-05-06 23:08 | 31.21165 | 31.93734 | 42420 ft | 403 kts | 109° |
| 2026-05-06 23:08 | 31.19569 | 32.00021 | 42410 ft | 404 kts | 109° |
| 2026-05-06 23:09 | 31.17971 | 32.06317 | 42419 ft | 404 kts | 109° |
| 2026-05-06 23:09 | 31.16376 | 32.12608 | 42417 ft | 404 kts | 109° |
| 2026-05-06 23:10 | 31.14777 | 32.18912 | 42399 ft | 405 kts | 109° |
| 2026-05-06 23:10 | 31.13182 | 32.25206 | 42443 ft | 404 kts | 109° |
| 2026-05-06 23:11 | 31.11588 | 32.31501 | 42415 ft | 405 kts | 109° |
| 2026-05-06 23:11 | 31.09993 | 32.37800 | 42423 ft | 405 kts | 110° |
| 2026-05-06 23:12 | 31.08399 | 32.44101 | 42411 ft | 405 kts | 110° |
| 2026-05-06 23:12 | 31.06805 | 32.50405 | 42420 ft | 405 kts | 110° |
| 2026-05-06 23:13 | 31.05213 | 32.56704 | 42430 ft | 405 kts | 110° |
| 2026-05-06 23:13 | 31.03622 | 32.63003 | 42409 ft | 405 kts | 110° |
| 2026-05-06 23:14 | 31.02026 | 32.69321 | 42376 ft | 407 kts | 110° |
| 2026-05-06 23:14 | 31.00430 | 32.75641 | 42425 ft | 406 kts | 110° |
| 2026-05-06 23:15 | 30.98838 | 32.81949 | 42409 ft | 406 kts | 110° |
| 2026-05-06 23:15 | 30.97242 | 32.88274 | 42414 ft | 406 kts | 110° |
| 2026-05-06 23:16 | 30.95659 | 32.94549 | 42388 ft | 407 kts | 111° |
| 2026-05-06 23:16 | 30.94058 | 33.00890 | 42380 ft | 408 kts | 111° |
| 2026-05-06 23:17 | 30.92463 | 33.07213 | 42462 ft | 406 kts | 111° |
| 2026-05-06 23:17 | 30.90866 | 33.13544 | 42397 ft | 408 kts | 111° |
| 2026-05-06 23:18 | 30.89266 | 33.19885 | 42427 ft | 408 kts | 111° |
| 2026-05-06 23:18 | 30.87669 | 33.26218 | 42423 ft | 408 kts | 111° |
| 2026-05-06 23:19 | 30.86069 | 33.32563 | 42432 ft | 408 kts | 111° |
| 2026-05-06 23:19 | 30.84473 | 33.38894 | 42463 ft | 408 kts | 111° |
| 2026-05-06 23:20 | 30.82875 | 33.45236 | 42433 ft | 409 kts | 111° |
| 2026-05-06 23:20 | 30.81278 | 33.51575 | 42483 ft | 408 kts | 111° |
| 2026-05-06 23:21 | 30.79683 | 33.57910 | 42451 ft | 409 kts | 111° |
| 2026-05-06 23:21 | 30.78085 | 33.64253 | 42482 ft | 408 kts | 111° |
| 2026-05-06 23:22 | 30.76493 | 33.70582 | 42479 ft | 408 kts | 111° |
| 2026-05-06 23:22 | 30.74894 | 33.76931 | 42421 ft | 410 kts | 111° |
| 2026-05-06 23:23 | 30.73299 | 33.83274 | 42505 ft | 408 kts | 111° |
| 2026-05-06 23:23 | 30.71705 | 33.89612 | 42463 ft | 409 kts | 111° |
| 2026-05-06 23:24 | 30.70108 | 33.95964 | 42475 ft | 409 kts | 112° |
| 2026-05-06 23:24 | 30.68514 | 34.02307 | 42464 ft | 410 kts | 112° |
| 2026-05-06 23:25 | 30.66911 | 34.08680 | 42456 ft | 411 kts | 112° |
| 2026-05-06 23:25 | 30.65318 | 34.15022 | 42558 ft | 408 kts | 112° |
| 2026-05-06 23:26 | 30.63735 | 34.21330 | 42462 ft | 411 kts | 112° |
| 2026-05-06 23:26 | 30.62132 | 34.27706 | 42488 ft | 411 kts | 112° |
| 2026-05-06 23:27 | 30.60539 | 34.34060 | 42512 ft | 410 kts | 112° |
| 2026-05-06 23:27 | 30.58939 | 34.40433 | 42493 ft | 411 kts | 112° |
| 2026-05-06 23:28 | 30.57342 | 34.46798 | 42566 ft | 410 kts | 112° |
| 2026-05-06 23:28 | 30.55745 | 34.53168 | 42508 ft | 412 kts | 113° |
| 2026-05-06 23:29 | 30.54141 | 34.59560 | 42547 ft | 412 kts | 112° |
| 2026-05-06 23:29 | 30.52548 | 34.65924 | 42598 ft | 411 kts | 112° |
| 2026-05-06 23:30 | 30.50947 | 34.72310 | 42519 ft | 414 kts | 112° |
| 2026-05-06 23:30 | 30.49346 | 34.78700 | 42561 ft | 412 kts | 113° |
| 2026-05-06 23:31 | 30.47743 | 34.85099 | 42488 ft | 414 kts | 113° |
| 2026-05-06 23:31 | 30.46141 | 34.91498 | 42589 ft | 412 kts | 113° |
| 2026-05-06 23:32 | 30.44548 | 34.97875 | 42554 ft | 413 kts | 113° |
| 2026-05-06 23:32 | 30.42939 | 35.04298 | 42468 ft | 415 kts | 113° |
| 2026-05-06 23:33 | 30.41340 | 35.10697 | 42562 ft | 412 kts | 113° |
| 2026-05-06 23:33 | 30.39740 | 35.17100 | 42467 ft | 415 kts | 113° |
| 2026-05-06 23:34 | 30.38136 | 35.23518 | 42556 ft | 413 kts | 113° |
| 2026-05-06 23:34 | 30.36554 | 35.29865 | 42546 ft | 414 kts | 113° |
| 2026-05-06 23:35 | 30.34945 | 35.36299 | 42481 ft | 416 kts | 113° |
| 2026-05-06 23:35 | 30.33343 | 35.42713 | 42570 ft | 414 kts | 114° |
| 2026-05-06 23:36 | 30.31737 | 35.49134 | 42499 ft | 417 kts | 113° |
| 2026-05-06 23:36 | 30.30132 | 35.55552 | 42627 ft | 413 kts | 114° |
| 2026-05-06 23:37 | 30.28534 | 35.61950 | 42546 ft | 416 kts | 114° |
| 2026-05-06 23:37 | 30.26923 | 35.68381 | 42552 ft | 415 kts | 114° |
| 2026-05-06 23:38 | 30.25325 | 35.74776 | 42631 ft | 414 kts | 114° |
| 2026-05-06 23:38 | 30.23721 | 35.81189 | 42525 ft | 416 kts | 114° |
| 2026-05-06 23:39 | 30.22121 | 35.87589 | 42632 ft | 413 kts | 114° |
| 2026-05-06 23:39 | 30.20525 | 35.93978 | 42579 ft | 415 kts | 114° |
| 2026-05-06 23:40 | 30.18919 | 36.00394 | 42585 ft | 415 kts | 114° |
| 2026-05-06 23:40 | 30.17322 | 36.06783 | 42641 ft | 413 kts | 114° |
| 2026-05-06 23:41 | 30.15721 | 36.13185 | 42574 ft | 416 kts | 114° |
| 2026-05-06 23:41 | 30.14118 | 36.19588 | 42648 ft | 414 kts | 114° |
| 2026-05-06 23:42 | 30.12522 | 36.25975 | 42610 ft | 415 kts | 114° |
| 2026-05-06 23:42 | 30.10917 | 36.32383 | 42606 ft | 415 kts | 114° |
| 2026-05-06 23:43 | 30.09321 | 36.38767 | 42674 ft | 413 kts | 114° |
| 2026-05-06 23:43 | 30.07721 | 36.45161 | 42631 ft | 416 kts | 114° |
| 2026-05-06 23:44 | 30.06388 | 36.50486 | 42665 ft | 415 kts | 114° |
| 2026-05-06 23:44 | 30.04517 | 36.57961 | 42625 ft | 416 kts | 114° |
| 2026-05-06 23:45 | 30.02920 | 36.64329 | 42651 ft | 415 kts | 114° |
| 2026-05-06 23:45 | 30.01578 | 36.69689 | 42690 ft | 415 kts | 114° |
| 2026-05-06 23:46 | 29.99974 | 36.76093 | 42619 ft | 416 kts | 114° |
| 2026-05-06 23:46 | 29.98363 | 36.82512 | 42629 ft | 416 kts | 114° |
| 2026-05-06 23:47 | 29.96755 | 36.88923 | 42659 ft | 416 kts | 114° |
| 2026-05-06 23:47 | 29.95154 | 36.95299 | 42645 ft | 417 kts | 114° |
| 2026-05-06 23:48 | 29.93544 | 37.01714 | 42669 ft | 417 kts | 114° |
| 2026-05-06 23:48 | 29.91924 | 37.08153 | 42609 ft | 419 kts | 114° |
| 2026-05-06 23:49 | 29.90306 | 37.14585 | 42705 ft | 417 kts | 114° |
| 2026-05-06 23:49 | 29.88692 | 37.21007 | 42664 ft | 418 kts | 114° |
| 2026-05-06 23:50 | 29.87066 | 37.27454 | 42648 ft | 419 kts | 114° |
| 2026-05-06 23:50 | 29.84637 | 37.37101 | 42683 ft | 419 kts | 114° |
| 2026-05-06 23:51 | 29.83009 | 37.43551 | 42690 ft | 419 kts | 114° |
| 2026-05-06 23:51 | 29.81385 | 37.49990 | 42750 ft | 418 kts | 114° |
| 2026-05-06 23:52 | 29.79765 | 37.56417 | 42725 ft | 419 kts | 114° |
| 2026-05-06 23:52 | 29.78138 | 37.62860 | 42738 ft | 419 kts | 114° |
| 2026-05-06 23:53 | 29.76517 | 37.69284 | 42780 ft | 418 kts | 114° |
| 2026-05-06 23:53 | 29.74894 | 37.75714 | 42759 ft | 418 kts | 115° |
| 2026-05-06 23:54 | 29.73280 | 37.82118 | 42831 ft | 416 kts | 115° |
| 2026-05-06 23:54 | 29.71660 | 37.88535 | 42760 ft | 419 kts | 115° |
| 2026-05-06 23:55 | 29.70037 | 37.94959 | 42816 ft | 417 kts | 115° |
| 2026-05-06 23:55 | 29.68421 | 38.01364 | 42782 ft | 418 kts | 115° |
| 2026-05-06 23:56 | 29.66804 | 38.07752 | 42785 ft | 419 kts | 115° |
| 2026-05-06 23:56 | 29.65184 | 38.14160 | 42879 ft | 417 kts | 115° |
| 2026-05-06 23:57 | 29.63561 | 38.20576 | 42795 ft | 419 kts | 115° |
| 2026-05-06 23:57 | 29.61930 | 38.27007 | 42843 ft | 418 kts | 115° |
| 2026-05-06 23:58 | 29.60309 | 38.33415 | 42878 ft | 418 kts | 115° |
| 2026-05-06 23:58 | 29.58680 | 38.39838 | 42831 ft | 419 kts | 115° |
| 2026-05-06 23:59 | 29.57052 | 38.46254 | 42900 ft | 418 kts | 115° |
| 2026-05-06 23:59 | 29.55427 | 38.52664 | 42864 ft | 419 kts | 115° |
| 2026-05-07 00:00 | 29.53795 | 38.59090 | 42883 ft | 418 kts | 115° |
| 2026-05-07 00:00 | 29.52169 | 38.65497 | 42900 ft | 418 kts | 115° |
| 2026-05-07 00:01 | 29.50537 | 38.71917 | 42860 ft | 419 kts | 115° |
| 2026-05-07 00:01 | 29.48906 | 38.78332 | 42918 ft | 418 kts | 115° |
| 2026-05-07 00:02 | 29.47277 | 38.84738 | 42895 ft | 419 kts | 115° |
| 2026-05-07 00:02 | 29.45643 | 38.91157 | 42893 ft | 419 kts | 115° |
| 2026-05-07 00:03 | 29.44007 | 38.97577 | 42895 ft | 420 kts | 115° |
| 2026-05-07 00:03 | 29.42368 | 39.04003 | 42931 ft | 419 kts | 115° |
| 2026-05-07 00:04 | 29.40731 | 39.10421 | 42951 ft | 420 kts | 115° |
| 2026-05-07 00:04 | 29.39088 | 39.16853 | 42897 ft | 421 kts | 115° |
| 2026-05-07 00:05 | 29.37442 | 39.23290 | 42945 ft | 420 kts | 115° |
| 2026-05-07 00:05 | 29.35800 | 39.29713 | 42947 ft | 420 kts | 115° |
| 2026-05-07 00:06 | 29.34152 | 39.36149 | 42921 ft | 421 kts | 115° |
| 2026-05-07 00:06 | 29.32503 | 39.42583 | 42968 ft | 420 kts | 115° |
| 2026-05-07 00:07 | 29.30855 | 39.49013 | 42958 ft | 421 kts | 115° |
| 2026-05-07 00:07 | 29.29205 | 39.55446 | 42992 ft | 420 kts | 115° |
| 2026-05-07 00:08 | 29.27558 | 39.61871 | 42971 ft | 421 kts | 115° |
| 2026-05-07 00:08 | 29.25919 | 39.68258 | 42962 ft | 421 kts | 115° |
| 2026-05-07 00:09 | 29.24268 | 39.74685 | 43039 ft | 420 kts | 115° |
| 2026-05-07 00:09 | 29.22621 | 39.81100 | 43023 ft | 420 kts | 115° |
| 2026-05-07 00:10 | 29.20971 | 39.87522 | 43062 ft | 419 kts | 115° |
| 2026-05-07 00:10 | 29.19331 | 39.93916 | 43081 ft | 419 kts | 115° |
| 2026-05-07 00:11 | 29.17680 | 40.00336 | 43026 ft | 421 kts | 115° |
| 2026-05-07 00:11 | 29.16033 | 40.06745 | 43100 ft | 419 kts | 115° |
| 2026-05-07 00:12 | 29.14391 | 40.13141 | 43090 ft | 420 kts | 115° |
| 2026-05-07 00:12 | 29.12740 | 40.19554 | 43093 ft | 420 kts | 115° |
| 2026-05-07 00:13 | 29.11096 | 40.25949 | 43139 ft | 419 kts | 115° |
| 2026-05-07 00:13 | 29.09446 | 40.32358 | 43070 ft | 421 kts | 115° |
| 2026-05-07 00:14 | 29.07790 | 40.38779 | 43142 ft | 420 kts | 115° |
| 2026-05-07 00:14 | 29.06143 | 40.45175 | 43155 ft | 420 kts | 115° |
| 2026-05-07 00:15 | 29.04486 | 40.51592 | 43103 ft | 421 kts | 115° |
| 2026-05-07 00:15 | 29.02834 | 40.57997 | 43190 ft | 419 kts | 115° |
| 2026-05-07 00:16 | 29.01183 | 40.64397 | 43162 ft | 421 kts | 115° |
| 2026-05-07 00:16 | 28.99526 | 40.70809 | 43199 ft | 420 kts | 115° |
| 2026-05-07 00:17 | 28.97875 | 40.77204 | 43228 ft | 420 kts | 115° |
| 2026-05-07 00:17 | 28.96220 | 40.83608 | 43197 ft | 421 kts | 115° |
| 2026-05-07 00:18 | 28.94566 | 40.90007 | 43258 ft | 420 kts | 115° |
| 2026-05-07 00:18 | 28.92914 | 40.96398 | 43245 ft | 420 kts | 115° |
| 2026-05-07 00:19 | 28.91259 | 41.02795 | 43240 ft | 420 kts | 115° |
| 2026-05-07 00:19 | 28.89604 | 41.09188 | 43275 ft | 420 kts | 115° |
| 2026-05-07 00:20 | 28.87951 | 41.15572 | 43251 ft | 419 kts | 115° |
| 2026-05-07 00:20 | 28.86303 | 41.21942 | 43301 ft | 418 kts | 115° |
| 2026-05-07 00:21 | 28.84655 | 41.28311 | 43290 ft | 419 kts | 115° |
| 2026-05-07 00:21 | 28.83002 | 41.34691 | 43320 ft | 419 kts | 115° |
| 2026-05-07 00:22 | 28.81358 | 41.41042 | 43418 ft | 416 kts | 115° |
| 2026-05-07 00:22 | 28.79717 | 41.47386 | 43341 ft | 418 kts | 115° |
| 2026-05-07 00:23 | 28.78076 | 41.53713 | 43351 ft | 418 kts | 115° |
| 2026-05-07 00:23 | 28.76437 | 41.60045 | 43443 ft | 415 kts | 115° |
| 2026-05-07 00:24 | 28.74801 | 41.66368 | 43394 ft | 417 kts | 115° |
| 2026-05-07 00:24 | 28.73154 | 41.72716 | 43403 ft | 417 kts | 115° |
| 2026-05-07 00:25 | 28.71517 | 41.79035 | 43422 ft | 416 kts | 115° |
| 2026-05-07 00:25 | 28.69874 | 41.85370 | 43371 ft | 417 kts | 115° |
| 2026-05-07 00:26 | 28.68231 | 41.91701 | 43439 ft | 416 kts | 115° |
| 2026-05-07 00:26 | 28.66593 | 41.98016 | 43429 ft | 417 kts | 115° |
| 2026-05-07 00:27 | 28.64948 | 42.04345 | 43415 ft | 416 kts | 115° |
| 2026-05-07 00:27 | 28.63311 | 42.10654 | 43473 ft | 415 kts | 115° |
| 2026-05-07 00:28 | 28.61670 | 42.16969 | 43430 ft | 417 kts | 115° |
| 2026-05-07 00:28 | 28.60028 | 42.23285 | 43480 ft | 415 kts | 115° |
| 2026-05-07 00:29 | 28.58398 | 42.29566 | 43517 ft | 414 kts | 115° |
| 2026-05-07 00:30 | 28.55119 | 42.42170 | 43529 ft | 414 kts | 115° |
| 2026-05-07 00:30 | 28.53756 | 42.47421 | 43545 ft | 414 kts | 115° |
| 2026-05-07 00:31 | 28.52129 | 42.53667 | 43471 ft | 416 kts | 115° |
| 2026-05-07 00:31 | 28.50494 | 42.59949 | 43569 ft | 413 kts | 115° |
| 2026-05-07 00:32 | 28.48862 | 42.66218 | 43488 ft | 415 kts | 115° |
| 2026-05-07 00:32 | 28.47216 | 42.72521 | 43480 ft | 415 kts | 115° |
| 2026-05-07 00:33 | 28.45581 | 42.78793 | 43595 ft | 413 kts | 115° |
| 2026-05-07 00:33 | 28.43943 | 42.85070 | 43500 ft | 416 kts | 115° |
| 2026-05-07 00:34 | 28.42297 | 42.91364 | 43563 ft | 414 kts | 115° |
| 2026-05-07 00:34 | 28.40664 | 42.97625 | 43586 ft | 414 kts | 115° |
| 2026-05-07 00:35 | 28.39018 | 43.03910 | 43488 ft | 416 kts | 116° |
| 2026-05-07 00:35 | 28.37368 | 43.10206 | 43537 ft | 415 kts | 116° |
| 2026-05-07 00:36 | 28.35723 | 43.16487 | 43543 ft | 415 kts | 116° |
| 2026-05-07 00:36 | 28.34070 | 43.22783 | 43543 ft | 416 kts | 116° |
| 2026-05-07 00:37 | 28.32416 | 43.29078 | 43551 ft | 416 kts | 116° |
| 2026-05-07 00:37 | 28.30761 | 43.35375 | 43546 ft | 417 kts | 116° |
| 2026-05-07 00:38 | 28.29103 | 43.41675 | 43578 ft | 416 kts | 116° |
| 2026-05-07 00:38 | 28.27446 | 43.47969 | 43562 ft | 417 kts | 116° |
| 2026-05-07 00:39 | 28.25796 | 43.54230 | 43579 ft | 417 kts | 116° |
| 2026-05-07 00:39 | 28.24135 | 43.60528 | 43619 ft | 417 kts | 116° |
| 2026-05-07 00:40 | 28.22477 | 43.66824 | 43559 ft | 415 kts | 114° |
| 2026-05-07 00:40 | 28.21702 | 43.69907 | 43121 ft | 399 kts | 116° |
| 2026-05-07 00:40 | 28.20935 | 43.72919 | 42279 ft | 397 kts | 117° |
| 2026-05-07 00:41 | 28.20141 | 43.75913 | 41541 ft | 396 kts | 117° |
| 2026-05-07 00:41 | 28.19345 | 43.78895 | 40875 ft | 395 kts | 117° |
| 2026-05-07 00:41 | 28.18577 | 43.81873 | 40274 ft | 393 kts | 116° |
| 2026-05-07 00:41 | 28.17866 | 43.84852 | 39708 ft | 390 kts | 115° |
| 2026-05-07 00:42 | 28.17235 | 43.87835 | 39206 ft | 388 kts | 112° |
| 2026-05-07 00:42 | 28.16701 | 43.90816 | 38741 ft | 385 kts | 110° |
| 2026-05-07 00:42 | 28.16275 | 43.93793 | 38221 ft | 381 kts | 107° |
| 2026-05-07 00:42 | 28.15962 | 43.96754 | 37721 ft | 376 kts | 104° |
| 2026-05-07 00:43 | 28.15766 | 43.99689 | 37262 ft | 371 kts | 101° |
| 2026-05-07 00:43 | 28.15689 | 44.02581 | 36832 ft | 364 kts | 98° |
| 2026-05-07 00:43 | 28.15734 | 44.05416 | 36405 ft | 356 kts | 95° |
| 2026-05-07 00:43 | 28.15902 | 44.08185 | 36015 ft | 348 kts | 91° |
| 2026-05-07 00:44 | 28.16193 | 44.10863 | 35630 ft | 337 kts | 87° |
| 2026-05-07 00:44 | 28.16608 | 44.13431 | 35228 ft | 325 kts | 83° |
| 2026-05-07 00:44 | 28.17151 | 44.15863 | 34798 ft | 312 kts | 77° |
| 2026-05-07 00:44 | 28.17827 | 44.18132 | 34245 ft | 291 kts | 70° |
| 2026-05-07 00:45 | 28.18474 | 44.19968 | 30439 ft | 221 kts | 106° |
| 2026-05-07 00:45 | 28.17528 | 44.21647 | 21348 ft | 365 kts | 157° |
| 2026-05-07 00:45 | 28.14256 | 44.22603 | 16237 ft | 530 kts | 180° |
| 2026-05-07 00:45 | 28.11377 | 44.22442 | 20367 ft | 319 kts | 194° |
| 2026-05-07 00:46 | 28.09635 | 44.22011 | 23787 ft | 196 kts | 208° |
| 2026-05-07 00:46 | 28.08741 | 44.21534 | 25041 ft | 101 kts | 234° |
| 2026-05-07 00:46 | 28.08327 | 44.21076 | 22654 ft | 94 kts | 250° |
| 2026-05-07 00:46 | 28.08151 | 44.19664 | 18304 ft | 256 kts | 264° |
| 2026-05-07 00:47 | 28.08154 | 44.17175 | 12446 ft | 389 kts | 269° |
| 2026-05-07 00:47 | 28.08331 | 44.13693 | 8373 ft | 469 kts | 271° |
| 2026-05-07 00:47 | 28.08627 | 44.09996 | 5615 ft | 471 kts | 273° |
| 2026-05-07 00:47 | 28.08943 | 44.06323 | 3025 ft | 468 kts | 275° |
| 2026-05-07 00:48 | 28.09080 | 44.04417 | 1824 ft | 0 kts | 275° |